Dr.kaiyo — JD2325 — position and weather

sailwx.info

Track history (hours):
 
Tides and Currents Weather Stations Pressure Air Temp Water Temp Dewpoint Dewpoint Depression Visibility Wind Speed Wind Dir Waves Ship Positions

Dr.kaiyo

Last reported at 2016-May-26 04:33 UTC. Time now 2016-May-26 06:49 UTC.
Position N 34°41' E 135°15'.

Length 31 m.

Type: Other ship. MMSI: 431301823.

Date/timePositionNaut miles runAvg speedWind from/ knotsBaromVisibWave heightAir tempDewpointWater temp
2016-May-26 04:33N 34°41' E 135°15'4 4.1
2016-May-26 03:32N 34°40' E 135°20'4 4.0
2016-May-26 02:33N 34°36' E 135°17'1111.1
2016-May-26 01:33N 34°28' E 135°09'7 6.8
2016-May-26 00:33N 34°34' E 135°09'8 7.6
2016-May-25 23:33N 34°41' E 135°12'3 0.1
2016-May-25 04:33N 34°40' E 135°15'3 3.0
2016-May-25 03:33N 34°39' E 135°12'4 3.8
2016-May-25 02:33N 34°37' E 135°07'8 8.1
2016-May-25 01:33N 34°31' E 135°13'7 6.6
2016-May-25 00:33N 34°32' E 135°06'11 9.6
2016-May-24 23:24N 34°41' E 135°12'0 0.0
2016-May-24 04:33N 34°42' E 135°13'7 7.4
2016-May-24 03:33N 34°35' E 135°10'8 7.6
2016-May-24 02:33N 34°28' E 135°05'6 5.2
2016-May-24 01:23N 34°24' E 135°10'8 9.5
2016-May-24 00:33N 34°31' E 135°14'9 9.0
2016-May-23 23:33N 34°40' E 135°15'3 0.2
2016-May-23 06:33N 34°41' E 135°12'7 7.3
2016-May-23 05:33N 34°36' E 135°05'8 8.0
2016-May-23 04:32N 34°28' E 135°02'8 8.0
2016-May-23 03:32N 34°32' E 135°10'5 5.0
2016-May-23 02:30N 34°29' E 135°15'8 8.4
2016-May-23 01:33N 34°36' E 135°21'4 4.3
2016-May-23 00:34N 34°39' E 135°18'4 4.0
2016-May-22 23:33N 34°41' E 135°14'  
2016-May-20 04:33N 34°41' E 135°13'2 2.0
2016-May-20 03:22N 34°39' E 135°12'5 5.6
2016-May-20 02:33N 34°35' E 135°10'6 5.8
2016-May-20 01:33N 34°38' E 135°16'4 3.4
2016-May-20 00:25N 34°41' E 135°13'0 0.1
2016-May-19 23:28N 34°41' E 135°13'1 0.0
2016-May-19 04:30N 34°42' E 135°12'1010.5
2016-May-19 03:33N 34°32' E 135°08'1 0.6
2016-May-19 02:32N 34°33' E 135°08'2 2.5
2016-May-19 01:33N 34°33' E 135°05'4 4.4
2016-May-19 00:33N 34°34' E 135°10'7 6.8
2016-May-18 23:27N 34°41' E 135°12'4 0.2
2016-May-18 04:33N 34°39' E 135°16'5 5.2
2016-May-18 03:31N 34°35' E 135°21'3 3.4
2016-May-18 02:33N 34°33' E 135°18'4 4.5
2016-May-18 01:33N 34°33' E 135°12'1010.2
2016-May-18 00:33N 34°40' E 135°20'7 6.5
2016-May-17 23:30N 34°41' E 135°12'0 0.0
2016-May-17 04:33N 34°42' E 135°12'1010.4
2016-May-17 03:33N 34°32' E 135°09'4 3.9
2016-May-17 02:33N 34°33' E 135°13'1 0.6
2016-May-17 01:33N 34°34' E 135°12'9 8.6
2016-May-17 00:33N 34°40' E 135°19'5 4.2
2016-May-16 23:16N 34°41' E 135°12'  
Track history (hours):
 
Tides and Currents Weather Stations Pressure Air Temp Water Temp Dewpoint Dewpoint Depression Visibility Wind Speed Wind Dir Waves Ship Positions

Dr.kaiyo

Last reported at 2016-May-26 04:33 UTC. Time now 2016-May-26 06:49 UTC.
Position N 34°41' E 135°15'.

Length 31 m.

Type: Other ship. MMSI: 431301823.

Date/timePositionNaut miles runAvg speedWind from/ knotsBaromVisibWave heightAir tempDewpointWater temp
2016-May-26 04:33N 34°41' E 135°15'4 4.1
2016-May-26 03:32N 34°40' E 135°20'4 4.0
2016-May-26 02:33N 34°36' E 135°17'1111.1
2016-May-26 01:33N 34°28' E 135°09'7 6.8
2016-May-26 00:33N 34°34' E 135°09'8 7.6
2016-May-25 23:33N 34°41' E 135°12'3 0.1
2016-May-25 04:33N 34°40' E 135°15'3 3.0
2016-May-25 03:33N 34°39' E 135°12'4 3.8
2016-May-25 02:33N 34°37' E 135°07'8 8.1
2016-May-25 01:33N 34°31' E 135°13'7 6.6
2016-May-25 00:33N 34°32' E 135°06'11 9.6
2016-May-24 23:24N 34°41' E 135°12'0 0.0
2016-May-24 04:33N 34°42' E 135°13'7 7.4
2016-May-24 03:33N 34°35' E 135°10'8 7.6
2016-May-24 02:33N 34°28' E 135°05'6 5.2
2016-May-24 01:23N 34°24' E 135°10'8 9.5
2016-May-24 00:33N 34°31' E 135°14'9 9.0
2016-May-23 23:33N 34°40' E 135°15'3 0.2
2016-May-23 06:33N 34°41' E 135°12'7 7.3
2016-May-23 05:33N 34°36' E 135°05'8 8.0
2016-May-23 04:32N 34°28' E 135°02'8 8.0
2016-May-23 03:32N 34°32' E 135°10'5 5.0
2016-May-23 02:30N 34°29' E 135°15'8 8.4
2016-May-23 01:33N 34°36' E 135°21'4 4.3
2016-May-23 00:34N 34°39' E 135°18'4 4.0
2016-May-22 23:33N 34°41' E 135°14'  
2016-May-20 04:33N 34°41' E 135°13'2 2.0
2016-May-20 03:22N 34°39' E 135°12'5 5.6
2016-May-20 02:33N 34°35' E 135°10'6 5.8
2016-May-20 01:33N 34°38' E 135°16'4 3.4
2016-May-20 00:25N 34°41' E 135°13'0 0.1
2016-May-19 23:28N 34°41' E 135°13'1 0.0
2016-May-19 04:30N 34°42' E 135°12'1010.5
2016-May-19 03:33N 34°32' E 135°08'1 0.6
2016-May-19 02:32N 34°33' E 135°08'2 2.5
2016-May-19 01:33N 34°33' E 135°05'4 4.4
2016-May-19 00:33N 34°34' E 135°10'7 6.8
2016-May-18 23:27N 34°41' E 135°12'4 0.2
2016-May-18 04:33N 34°39' E 135°16'5 5.2
2016-May-18 03:31N 34°35' E 135°21'3 3.4
2016-May-18 02:33N 34°33' E 135°18'4 4.5
2016-May-18 01:33N 34°33' E 135°12'1010.2
2016-May-18 00:33N 34°40' E 135°20'7 6.5
2016-May-17 23:30N 34°41' E 135°12'0 0.0
2016-May-17 04:33N 34°42' E 135°12'1010.4
2016-May-17 03:33N 34°32' E 135°09'4 3.9
2016-May-17 02:33N 34°33' E 135°13'1 0.6
2016-May-17 01:33N 34°34' E 135°12'9 8.6
2016-May-17 00:33N 34°40' E 135°19'5 4.2
2016-May-16 23:16N 34°41' E 135°12'  

Dump ship's entire track history